sensor_id;sensor_type;location;lat;lon;timestamp;temperature;humidity
35690;DHT22;26977;44.830;-0.674;2022-07-15T00:00:24;22.90;86.70
35690;DHT22;26977;44.830;-0.674;2022-07-15T00:02:50;22.90;86.80
35690;DHT22;26977;44.830;-0.674;2022-07-15T00:05:15;22.80;87.00
35690;DHT22;26977;44.830;-0.674;2022-07-15T00:07:41;22.70;87.50
35690;DHT22;26977;44.830;-0.674;2022-07-15T00:10:07;22.60;87.60
35690;DHT22;26977;44.830;-0.674;2022-07-15T00:12:49;22.60;88.00
35690;DHT22;26977;44.830;-0.674;2022-07-15T00:15:16;22.50;88.40
35690;DHT22;26977;44.830;-0.674;2022-07-15T00:17:42;22.50;88.40
35690;DHT22;26977;44.830;-0.674;2022-07-15T00:20:09;22.40;88.80
35690;DHT22;26977;44.830;-0.674;2022-07-15T00:22:36;22.40;89.00
35690;DHT22;26977;44.830;-0.674;2022-07-15T00:25:02;22.30;89.10
35690;DHT22;26977;44.830;-0.674;2022-07-15T00:27:28;22.30;89.10
35690;DHT22;26977;44.830;-0.674;2022-07-15T00:29:53;22.30;89.10
35690;DHT22;26977;44.830;-0.674;2022-07-15T00:32:19;22.30;89.20
35690;DHT22;26977;44.830;-0.674;2022-07-15T00:34:45;22.20;89.30
35690;DHT22;26977;44.830;-0.674;2022-07-15T00:37:11;22.20;89.30
35690;DHT22;26977;44.830;-0.674;2022-07-15T00:39:36;22.20;89.20
35690;DHT22;26977;44.830;-0.674;2022-07-15T00:42:03;22.20;89.30
35690;DHT22;26977;44.830;-0.674;2022-07-15T00:44:29;22.10;89.40
35690;DHT22;26977;44.830;-0.674;2022-07-15T00:46:55;22.00;89.60
35690;DHT22;26977;44.830;-0.674;2022-07-15T00:49:21;22.00;89.90
35690;DHT22;26977;44.830;-0.674;2022-07-15T00:51:51;22.00;89.60
35690;DHT22;26977;44.830;-0.674;2022-07-15T00:54:21;22.00;89.90
35690;DHT22;26977;44.830;-0.674;2022-07-15T00:56:50;21.90;89.70
35690;DHT22;26977;44.830;-0.674;2022-07-15T00:59:17;22.00;89.70
35690;DHT22;26977;44.830;-0.674;2022-07-15T01:01:49;21.90;89.50
35690;DHT22;26977;44.830;-0.674;2022-07-15T01:04:17;21.90;89.60
35690;DHT22;26977;44.830;-0.674;2022-07-15T01:06:43;21.90;89.70
35690;DHT22;26977;44.830;-0.674;2022-07-15T01:09:09;21.80;89.70
35690;DHT22;26977;44.830;-0.674;2022-07-15T01:11:35;21.80;89.70
35690;DHT22;26977;44.830;-0.674;2022-07-15T01:14:02;21.90;89.30
35690;DHT22;26977;44.830;-0.674;2022-07-15T01:16:28;21.90;89.20
35690;DHT22;26977;44.830;-0.674;2022-07-15T01:18:54;21.80;89.10
35690;DHT22;26977;44.830;-0.674;2022-07-15T01:21:21;21.80;88.90
35690;DHT22;26977;44.830;-0.674;2022-07-15T01:23:47;21.80;88.40
35690;DHT22;26977;44.830;-0.674;2022-07-15T01:26:14;21.80;88.30
35690;DHT22;26977;44.830;-0.674;2022-07-15T01:28:41;21.90;87.80
35690;DHT22;26977;44.830;-0.674;2022-07-15T01:31:07;21.80;87.60
35690;DHT22;26977;44.830;-0.674;2022-07-15T01:33:33;21.80;87.60
35690;DHT22;26977;44.830;-0.674;2022-07-15T01:36:00;21.70;87.50
35690;DHT22;26977;44.830;-0.674;2022-07-15T01:38:27;21.70;87.40
35690;DHT22;26977;44.830;-0.674;2022-07-15T01:40:53;21.70;87.30
35690;DHT22;26977;44.830;-0.674;2022-07-15T01:43:19;21.80;86.90
35690;DHT22;26977;44.830;-0.674;2022-07-15T01:45:45;21.80;86.50
35690;DHT22;26977;44.830;-0.674;2022-07-15T01:48:12;21.70;86.20
35690;DHT22;26977;44.830;-0.674;2022-07-15T01:50:57;21.70;86.10
35690;DHT22;26977;44.830;-0.674;2022-07-15T01:53:24;21.70;86.00
35690;DHT22;26977;44.830;-0.674;2022-07-15T01:55:50;21.60;85.80
35690;DHT22;26977;44.830;-0.674;2022-07-15T01:58:16;21.70;85.50
35690;DHT22;26977;44.830;-0.674;2022-07-15T02:00:42;21.70;85.20
35690;DHT22;26977;44.830;-0.674;2022-07-15T02:03:08;21.70;85.10
35690;DHT22;26977;44.830;-0.674;2022-07-15T02:05:34;21.70;85.00
35690;DHT22;26977;44.830;-0.674;2022-07-15T02:08:01;21.70;84.80
35690;DHT22;26977;44.830;-0.674;2022-07-15T02:10:27;21.70;84.70
35690;DHT22;26977;44.830;-0.674;2022-07-15T02:13:12;21.70;84.30
35690;DHT22;26977;44.830;-0.674;2022-07-15T02:15:39;21.70;84.30
35690;DHT22;26977;44.830;-0.674;2022-07-15T02:18:05;21.60;84.10
35690;DHT22;26977;44.830;-0.674;2022-07-15T02:20:32;21.60;84.10
35690;DHT22;26977;44.830;-0.674;2022-07-15T02:22:58;21.60;84.20
35690;DHT22;26977;44.830;-0.674;2022-07-15T02:25:31;21.60;84.50
35690;DHT22;26977;44.830;-0.674;2022-07-15T02:28:00;21.60;83.80
35690;DHT22;26977;44.830;-0.674;2022-07-15T02:30:28;21.50;83.90
35690;DHT22;26977;44.830;-0.674;2022-07-15T02:32:54;21.50;84.10
35690;DHT22;26977;44.830;-0.674;2022-07-15T02:35:20;21.40;84.10
35690;DHT22;26977;44.830;-0.674;2022-07-15T02:37:46;21.30;84.50
35690;DHT22;26977;44.830;-0.674;2022-07-15T02:40:12;21.20;84.60
35690;DHT22;26977;44.830;-0.674;2022-07-15T02:42:38;21.20;84.60
35690;DHT22;26977;44.830;-0.674;2022-07-15T02:45:04;21.10;84.70
35690;DHT22;26977;44.830;-0.674;2022-07-15T02:47:31;21.10;84.60
35690;DHT22;26977;44.830;-0.674;2022-07-15T02:49:56;21.10;84.40
35690;DHT22;26977;44.830;-0.674;2022-07-15T02:52:22;21.10;84.50
35690;DHT22;26977;44.830;-0.674;2022-07-15T02:54:48;21.10;84.50
35690;DHT22;26977;44.830;-0.674;2022-07-15T02:57:13;21.10;84.20
35690;DHT22;26977;44.830;-0.674;2022-07-15T02:59:39;21.00;84.30
35690;DHT22;26977;44.830;-0.674;2022-07-15T03:02:05;21.00;84.30
35690;DHT22;26977;44.830;-0.674;2022-07-15T03:04:31;20.90;84.30
35690;DHT22;26977;44.830;-0.674;2022-07-15T03:06:56;20.90;84.40
35690;DHT22;26977;44.830;-0.674;2022-07-15T03:09:22;20.90;84.70
35690;DHT22;26977;44.830;-0.674;2022-07-15T03:11:48;20.90;84.60
35690;DHT22;26977;44.830;-0.674;2022-07-15T03:14:13;20.80;84.70
35690;DHT22;26977;44.830;-0.674;2022-07-15T03:16:39;20.80;84.70
35690;DHT22;26977;44.830;-0.674;2022-07-15T03:19:05;20.80;84.80
35690;DHT22;26977;44.830;-0.674;2022-07-15T03:21:31;20.70;84.60
35690;DHT22;26977;44.830;-0.674;2022-07-15T03:23:56;20.60;84.60
35690;DHT22;26977;44.830;-0.674;2022-07-15T03:26:22;20.70;84.60
35690;DHT22;26977;44.830;-0.674;2022-07-15T03:28:48;20.70;84.10
35690;DHT22;26977;44.830;-0.674;2022-07-15T03:31:13;20.70;84.10
35690;DHT22;26977;44.830;-0.674;2022-07-15T03:33:40;20.60;84.10
35690;DHT22;26977;44.830;-0.674;2022-07-15T03:36:06;20.50;84.00
35690;DHT22;26977;44.830;-0.674;2022-07-15T03:38:31;20.60;83.80
35690;DHT22;26977;44.830;-0.674;2022-07-15T03:40:57;20.70;83.50
35690;DHT22;26977;44.830;-0.674;2022-07-15T03:43:23;20.70;83.20
35690;DHT22;26977;44.830;-0.674;2022-07-15T03:45:52;20.60;83.30
35690;DHT22;26977;44.830;-0.674;2022-07-15T03:48:19;20.60;83.10
35690;DHT22;26977;44.830;-0.674;2022-07-15T03:50:45;20.60;83.30
35690;DHT22;26977;44.830;-0.674;2022-07-15T03:53:10;20.60;83.20
35690;DHT22;26977;44.830;-0.674;2022-07-15T03:55:36;20.60;82.80
35690;DHT22;26977;44.830;-0.674;2022-07-15T03:58:03;20.60;82.70
35690;DHT22;26977;44.830;-0.674;2022-07-15T04:00:29;20.60;82.70
35690;DHT22;26977;44.830;-0.674;2022-07-15T04:02:55;20.50;82.60
35690;DHT22;26977;44.830;-0.674;2022-07-15T04:05:21;20.50;82.70
35690;DHT22;26977;44.830;-0.674;2022-07-15T04:07:47;20.40;82.90
35690;DHT22;26977;44.830;-0.674;2022-07-15T04:10:13;20.30;83.00
35690;DHT22;26977;44.830;-0.674;2022-07-15T04:12:39;20.40;82.70
35690;DHT22;26977;44.830;-0.674;2022-07-15T04:15:05;20.40;82.30
35690;DHT22;26977;44.830;-0.674;2022-07-15T04:17:31;20.30;81.90
35690;DHT22;26977;44.830;-0.674;2022-07-15T04:19:56;20.30;82.20
35690;DHT22;26977;44.830;-0.674;2022-07-15T04:22:22;20.30;81.80
35690;DHT22;26977;44.830;-0.674;2022-07-15T04:24:48;20.20;82.40
35690;DHT22;26977;44.830;-0.674;2022-07-15T04:27:13;20.20;81.70
35690;DHT22;26977;44.830;-0.674;2022-07-15T04:29:39;20.20;81.50
35690;DHT22;26977;44.830;-0.674;2022-07-15T04:32:05;20.20;80.80
35690;DHT22;26977;44.830;-0.674;2022-07-15T04:34:31;20.20;80.70
35690;DHT22;26977;44.830;-0.674;2022-07-15T04:36:56;20.20;80.60
35690;DHT22;26977;44.830;-0.674;2022-07-15T04:39:22;20.20;80.40
35690;DHT22;26977;44.830;-0.674;2022-07-15T04:41:47;20.20;80.60
35690;DHT22;26977;44.830;-0.674;2022-07-15T04:44:15;20.00;80.70
35690;DHT22;26977;44.830;-0.674;2022-07-15T04:46:41;20.10;80.60
35690;DHT22;26977;44.830;-0.674;2022-07-15T04:49:07;20.10;80.20
35690;DHT22;26977;44.830;-0.674;2022-07-15T04:51:51;20.10;80.30
35690;DHT22;26977;44.830;-0.674;2022-07-15T04:54:17;20.10;80.00
35690;DHT22;26977;44.830;-0.674;2022-07-15T04:56:42;20.20;79.80
35690;DHT22;26977;44.830;-0.674;2022-07-15T04:59:08;20.20;79.70
35690;DHT22;26977;44.830;-0.674;2022-07-15T05:01:34;20.20;79.50
35690;DHT22;26977;44.830;-0.674;2022-07-15T05:03:59;20.20;79.40
35690;DHT22;26977;44.830;-0.674;2022-07-15T05:06:25;20.20;79.10
35690;DHT22;26977;44.830;-0.674;2022-07-15T05:08:51;20.20;79.40
35690;DHT22;26977;44.830;-0.674;2022-07-15T05:11:17;20.20;79.40
35690;DHT22;26977;44.830;-0.674;2022-07-15T05:13:42;20.20;79.70
35690;DHT22;26977;44.830;-0.674;2022-07-15T05:16:08;20.10;80.10
35690;DHT22;26977;44.830;-0.674;2022-07-15T05:18:34;20.00;80.10
35690;DHT22;26977;44.830;-0.674;2022-07-15T05:20:59;20.10;80.00
35690;DHT22;26977;44.830;-0.674;2022-07-15T05:23:26;20.10;80.00
35690;DHT22;26977;44.830;-0.674;2022-07-15T05:25:51;20.20;80.10
35690;DHT22;26977;44.830;-0.674;2022-07-15T05:28:17;20.20;79.60
35690;DHT22;26977;44.830;-0.674;2022-07-15T05:30:43;20.20;79.50
35690;DHT22;26977;44.830;-0.674;2022-07-15T05:33:08;20.20;79.90
35690;DHT22;26977;44.830;-0.674;2022-07-15T05:35:34;20.30;79.40
35690;DHT22;26977;44.830;-0.674;2022-07-15T05:38:00;20.40;79.50
35690;DHT22;26977;44.830;-0.674;2022-07-15T05:40:26;20.50;79.30
35690;DHT22;26977;44.830;-0.674;2022-07-15T05:42:51;20.50;79.10
35690;DHT22;26977;44.830;-0.674;2022-07-15T05:45:19;20.50;79.20
35690;DHT22;26977;44.830;-0.674;2022-07-15T05:47:50;20.50;78.60
35690;DHT22;26977;44.830;-0.674;2022-07-15T05:50:17;20.70;78.60
35690;DHT22;26977;44.830;-0.674;2022-07-15T05:52:43;20.70;78.00
35690;DHT22;26977;44.830;-0.674;2022-07-15T05:55:09;20.80;78.00
35690;DHT22;26977;44.830;-0.674;2022-07-15T05:57:35;20.90;77.90
35690;DHT22;26977;44.830;-0.674;2022-07-15T06:00:01;20.90;77.90
35690;DHT22;26977;44.830;-0.674;2022-07-15T06:02:26;21.00;78.40
35690;DHT22;26977;44.830;-0.674;2022-07-15T06:04:52;21.00;77.70
35690;DHT22;26977;44.830;-0.674;2022-07-15T06:07:18;21.10;77.80
35690;DHT22;26977;44.830;-0.674;2022-07-15T06:09:44;21.20;77.50
35690;DHT22;26977;44.830;-0.674;2022-07-15T06:12:10;21.30;77.20
35690;DHT22;26977;44.830;-0.674;2022-07-15T06:14:35;21.30;77.20
35690;DHT22;26977;44.830;-0.674;2022-07-15T06:17:01;21.40;77.50
35690;DHT22;26977;44.830;-0.674;2022-07-15T06:19:27;21.40;76.90
35690;DHT22;26977;44.830;-0.674;2022-07-15T06:21:52;21.50;77.10
35690;DHT22;26977;44.830;-0.674;2022-07-15T06:24:18;21.60;76.30
35690;DHT22;26977;44.830;-0.674;2022-07-15T06:26:44;21.60;76.40
35690;DHT22;26977;44.830;-0.674;2022-07-15T06:29:10;21.60;76.70
35690;DHT22;26977;44.830;-0.674;2022-07-15T06:31:36;21.70;77.10
35690;DHT22;26977;44.830;-0.674;2022-07-15T06:34:02;21.80;76.10
35690;DHT22;26977;44.830;-0.674;2022-07-15T06:36:27;21.90;76.20
35690;DHT22;26977;44.830;-0.674;2022-07-15T06:38:53;21.90;76.50
35690;DHT22;26977;44.830;-0.674;2022-07-15T06:41:19;21.90;76.10
35690;DHT22;26977;44.830;-0.674;2022-07-15T06:43:45;21.90;76.00
35690;DHT22;26977;44.830;-0.674;2022-07-15T06:46:11;22.00;76.20
35690;DHT22;26977;44.830;-0.674;2022-07-15T06:48:37;22.10;75.70
35690;DHT22;26977;44.830;-0.674;2022-07-15T06:51:04;22.10;76.30
35690;DHT22;26977;44.830;-0.674;2022-07-15T06:53:30;22.20;76.10
35690;DHT22;26977;44.830;-0.674;2022-07-15T06:55:56;22.30;75.40
35690;DHT22;26977;44.830;-0.674;2022-07-15T06:58:21;22.40;75.40
35690;DHT22;26977;44.830;-0.674;2022-07-15T07:00:47;22.40;75.50
35690;DHT22;26977;44.830;-0.674;2022-07-15T07:03:13;22.50;75.40
35690;DHT22;26977;44.830;-0.674;2022-07-15T07:05:38;22.50;75.00
35690;DHT22;26977;44.830;-0.674;2022-07-15T07:08:04;22.50;75.30
35690;DHT22;26977;44.830;-0.674;2022-07-15T07:10:31;22.60;75.00
35690;DHT22;26977;44.830;-0.674;2022-07-15T07:12:56;22.70;75.30
35690;DHT22;26977;44.830;-0.674;2022-07-15T07:15:22;22.80;75.20
35690;DHT22;26977;44.830;-0.674;2022-07-15T07:17:50;22.80;74.70
35690;DHT22;26977;44.830;-0.674;2022-07-15T07:20:17;23.00;74.90
35690;DHT22;26977;44.830;-0.674;2022-07-15T07:22:42;23.10;74.80
35690;DHT22;26977;44.830;-0.674;2022-07-15T07:25:08;23.30;74.60
35690;DHT22;26977;44.830;-0.674;2022-07-15T07:27:34;23.40;73.50
35690;DHT22;26977;44.830;-0.674;2022-07-15T07:30:00;23.50;73.70
35690;DHT22;26977;44.830;-0.674;2022-07-15T07:32:28;23.50;73.30
35690;DHT22;26977;44.830;-0.674;2022-07-15T07:34:54;23.60;73.90
35690;DHT22;26977;44.830;-0.674;2022-07-15T07:37:20;23.70;73.40
35690;DHT22;26977;44.830;-0.674;2022-07-15T07:39:45;23.90;73.10
35690;DHT22;26977;44.830;-0.674;2022-07-15T07:42:11;24.00;72.60
35690;DHT22;26977;44.830;-0.674;2022-07-15T07:44:37;24.10;72.70
35690;DHT22;26977;44.830;-0.674;2022-07-15T07:47:03;24.10;72.50
35690;DHT22;26977;44.830;-0.674;2022-07-15T07:49:28;24.20;72.80
35690;DHT22;26977;44.830;-0.674;2022-07-15T07:51:54;24.20;72.10
35690;DHT22;26977;44.830;-0.674;2022-07-15T07:54:20;24.30;72.70
35690;DHT22;26977;44.830;-0.674;2022-07-15T07:56:47;24.50;71.70
35690;DHT22;26977;44.830;-0.674;2022-07-15T07:59:12;24.40;71.70
35690;DHT22;26977;44.830;-0.674;2022-07-15T08:01:38;24.40;72.00
35690;DHT22;26977;44.830;-0.674;2022-07-15T08:04:04;24.40;72.30
35690;DHT22;26977;44.830;-0.674;2022-07-15T08:06:30;24.50;71.80
35690;DHT22;26977;44.830;-0.674;2022-07-15T08:08:56;24.60;72.40
35690;DHT22;26977;44.830;-0.674;2022-07-15T08:11:22;24.90;72.00
35690;DHT22;26977;44.830;-0.674;2022-07-15T08:13:48;24.90;71.20
35690;DHT22;26977;44.830;-0.674;2022-07-15T08:16:13;25.00;71.00
35690;DHT22;26977;44.830;-0.674;2022-07-15T08:18:39;25.10;71.30
35690;DHT22;26977;44.830;-0.674;2022-07-15T08:21:05;25.20;70.60
35690;DHT22;26977;44.830;-0.674;2022-07-15T08:23:31;25.40;70.50
35690;DHT22;26977;44.830;-0.674;2022-07-15T08:25:58;25.40;70.30
35690;DHT22;26977;44.830;-0.674;2022-07-15T08:28:24;25.50;71.00
35690;DHT22;26977;44.830;-0.674;2022-07-15T08:30:50;25.70;70.40
35690;DHT22;26977;44.830;-0.674;2022-07-15T08:33:16;25.70;70.60
35690;DHT22;26977;44.830;-0.674;2022-07-15T08:35:42;25.80;70.50
35690;DHT22;26977;44.830;-0.674;2022-07-15T08:38:10;25.70;69.70
35690;DHT22;26977;44.830;-0.674;2022-07-15T08:40:37;25.80;71.70
35690;DHT22;26977;44.830;-0.674;2022-07-15T08:43:10;25.80;69.70
35690;DHT22;26977;44.830;-0.674;2022-07-15T08:45:37;25.80;70.10
35690;DHT22;26977;44.830;-0.674;2022-07-15T08:48:04;25.90;69.60
35690;DHT22;26977;44.830;-0.674;2022-07-15T08:50:32;26.00;70.30
35690;DHT22;26977;44.830;-0.674;2022-07-15T08:52:58;25.90;70.50
35690;DHT22;26977;44.830;-0.674;2022-07-15T08:55:24;25.90;70.20
35690;DHT22;26977;44.830;-0.674;2022-07-15T08:57:51;26.10;69.90
35690;DHT22;26977;44.830;-0.674;2022-07-15T09:00:21;26.20;69.30
35690;DHT22;26977;44.830;-0.674;2022-07-15T09:02:48;26.40;70.10
35690;DHT22;26977;44.830;-0.674;2022-07-15T09:10:55;26.50;69.60
35690;DHT22;26977;44.830;-0.674;2022-07-15T09:15:51;26.70;69.90
35690;DHT22;26977;44.830;-0.674;2022-07-15T09:18:25;26.90;69.40
35690;DHT22;26977;44.830;-0.674;2022-07-15T09:20:51;27.20;68.00
35690;DHT22;26977;44.830;-0.674;2022-07-15T09:23:23;27.40;67.20
35690;DHT22;26977;44.830;-0.674;2022-07-15T09:25:59;27.40;67.70
35690;DHT22;26977;44.830;-0.674;2022-07-15T09:28:36;27.30;67.20
35690;DHT22;26977;44.830;-0.674;2022-07-15T09:31:02;27.40;68.30
35690;DHT22;26977;44.830;-0.674;2022-07-15T09:33:50;27.70;67.10
35690;DHT22;26977;44.830;-0.674;2022-07-15T09:38:53;27.90;66.60
35690;DHT22;26977;44.830;-0.674;2022-07-15T09:41:32;27.90;66.60
35690;DHT22;26977;44.830;-0.674;2022-07-15T09:44:01;27.90;67.20
35690;DHT22;26977;44.830;-0.674;2022-07-15T09:46:38;28.00;66.60
35690;DHT22;26977;44.830;-0.674;2022-07-15T09:49:06;28.00;67.10
35690;DHT22;26977;44.830;-0.674;2022-07-15T09:51:48;28.20;67.00
35690;DHT22;26977;44.830;-0.674;2022-07-15T09:54:14;28.30;66.60
35690;DHT22;26977;44.830;-0.674;2022-07-15T09:56:40;28.60;65.50
35690;DHT22;26977;44.830;-0.674;2022-07-15T09:59:07;28.80;65.80
35690;DHT22;26977;44.830;-0.674;2022-07-15T10:01:34;28.90;64.90
35690;DHT22;26977;44.830;-0.674;2022-07-15T10:04:01;29.00;63.70
35690;DHT22;26977;44.830;-0.674;2022-07-15T10:06:27;29.20;63.30
35690;DHT22;26977;44.830;-0.674;2022-07-15T10:08:54;29.20;63.00
35690;DHT22;26977;44.830;-0.674;2022-07-15T10:11:20;29.10;63.30
35690;DHT22;26977;44.830;-0.674;2022-07-15T10:16:34;29.50;62.80
35690;DHT22;26977;44.830;-0.674;2022-07-15T10:19:54;29.60;62.20
35690;DHT22;26977;44.830;-0.674;2022-07-15T10:30:22;29.60;62.90
35690;DHT22;26977;44.830;-0.674;2022-07-15T10:33:15;29.70;62.20
35690;DHT22;26977;44.830;-0.674;2022-07-15T10:38:23;29.70;62.70
35690;DHT22;26977;44.830;-0.674;2022-07-15T10:43:57;30.20;62.10
35690;DHT22;26977;44.830;-0.674;2022-07-15T10:46:34;30.10;61.40
35690;DHT22;26977;44.830;-0.674;2022-07-15T10:54:01;30.20;63.50
35690;DHT22;26977;44.830;-0.674;2022-07-15T10:56:28;30.10;61.50
35690;DHT22;26977;44.830;-0.674;2022-07-15T11:01:38;30.30;61.80
35690;DHT22;26977;44.830;-0.674;2022-07-15T11:04:13;30.40;62.20
35690;DHT22;26977;44.830;-0.674;2022-07-15T11:14:57;31.00;60.20
35690;DHT22;26977;44.830;-0.674;2022-07-15T11:19:52;30.80;60.40
35690;DHT22;26977;44.830;-0.674;2022-07-15T11:22:20;30.80;60.00
35690;DHT22;26977;44.830;-0.674;2022-07-15T11:24:46;31.00;59.30
35690;DHT22;26977;44.830;-0.674;2022-07-15T11:27:12;31.10;58.90
35690;DHT22;26977;44.830;-0.674;2022-07-15T11:29:48;31.20;59.70
35690;DHT22;26977;44.830;-0.674;2022-07-15T11:32:16;31.10;59.40
35690;DHT22;26977;44.830;-0.674;2022-07-15T11:34:45;31.10;58.50
35690;DHT22;26977;44.830;-0.674;2022-07-15T11:37:12;31.50;59.10
35690;DHT22;26977;44.830;-0.674;2022-07-15T11:39:38;31.70;58.70
35690;DHT22;26977;44.830;-0.674;2022-07-15T11:42:04;31.90;59.10
35690;DHT22;26977;44.830;-0.674;2022-07-15T11:44:50;32.10;57.50
35690;DHT22;26977;44.830;-0.674;2022-07-15T11:47:16;32.10;56.60
35690;DHT22;26977;44.830;-0.674;2022-07-15T11:49:43;32.10;56.20
35690;DHT22;26977;44.830;-0.674;2022-07-15T11:52:24;32.30;56.50
35690;DHT22;26977;44.830;-0.674;2022-07-15T11:54:50;32.50;56.20
35690;DHT22;26977;44.830;-0.674;2022-07-15T11:57:16;32.40;55.00
35690;DHT22;26977;44.830;-0.674;2022-07-15T11:59:51;32.60;54.70
35690;DHT22;26977;44.830;-0.674;2022-07-15T12:02:17;32.50;55.20
35690;DHT22;26977;44.830;-0.674;2022-07-15T12:04:44;32.60;55.30
35690;DHT22;26977;44.830;-0.674;2022-07-15T12:07:10;32.70;55.50
35690;DHT22;26977;44.830;-0.674;2022-07-15T12:09:44;33.00;55.20
35690;DHT22;26977;44.830;-0.674;2022-07-15T12:12:10;33.10;54.30
35690;DHT22;26977;44.830;-0.674;2022-07-15T12:14:36;33.40;52.10
35690;DHT22;26977;44.830;-0.674;2022-07-15T12:17:03;33.60;51.40
35690;DHT22;26977;44.830;-0.674;2022-07-15T12:19:30;33.80;51.00
35690;DHT22;26977;44.830;-0.674;2022-07-15T12:21:59;33.90;49.40
35690;DHT22;26977;44.830;-0.674;2022-07-15T12:24:30;34.10;52.00
35690;DHT22;26977;44.830;-0.674;2022-07-15T12:27:01;34.10;51.40
35690;DHT22;26977;44.830;-0.674;2022-07-15T12:29:30;34.20;50.50
35690;DHT22;26977;44.830;-0.674;2022-07-15T12:31:59;33.80;49.40
35690;DHT22;26977;44.830;-0.674;2022-07-15T12:37:14;34.30;50.00
35690;DHT22;26977;44.830;-0.674;2022-07-15T12:42:31;35.00;48.80
35690;DHT22;26977;44.830;-0.674;2022-07-15T12:47:32;35.40;47.90
35690;DHT22;26977;44.830;-0.674;2022-07-15T12:49:59;35.70;45.60
35690;DHT22;26977;44.830;-0.674;2022-07-15T12:54:53;35.70;49.30
35690;DHT22;26977;44.830;-0.674;2022-07-15T12:57:32;37.00;45.80
35690;DHT22;26977;44.830;-0.674;2022-07-15T13:00:06;37.30;44.00
35690;DHT22;26977;44.830;-0.674;2022-07-15T13:02:56;38.00;43.60
35690;DHT22;26977;44.830;-0.674;2022-07-15T13:05:23;38.00;45.40
35690;DHT22;26977;44.830;-0.674;2022-07-15T13:07:49;38.00;45.70
35690;DHT22;26977;44.830;-0.674;2022-07-15T13:10:15;37.60;46.00
35690;DHT22;26977;44.830;-0.674;2022-07-15T13:12:40;38.00;46.80
35690;DHT22;26977;44.830;-0.674;2022-07-15T13:15:06;38.70;46.30
35690;DHT22;26977;44.830;-0.674;2022-07-15T13:17:32;39.40;45.40
35690;DHT22;26977;44.830;-0.674;2022-07-15T13:19:58;40.10;44.40
35690;DHT22;26977;44.830;-0.674;2022-07-15T13:22:24;40.60;45.60
35690;DHT22;26977;44.830;-0.674;2022-07-15T13:24:50;40.90;43.00
35690;DHT22;26977;44.830;-0.674;2022-07-15T13:27:16;39.40;43.60
35690;DHT22;26977;44.830;-0.674;2022-07-15T13:29:41;39.40;42.50
35690;DHT22;26977;44.830;-0.674;2022-07-15T13:32:07;38.90;42.10
35690;DHT22;26977;44.830;-0.674;2022-07-15T13:34:33;38.70;42.30
35690;DHT22;26977;44.830;-0.674;2022-07-15T13:36:58;38.90;42.90
35690;DHT22;26977;44.830;-0.674;2022-07-15T13:39:24;38.50;42.50
35690;DHT22;26977;44.830;-0.674;2022-07-15T13:41:49;39.50;43.10
35690;DHT22;26977;44.830;-0.674;2022-07-15T13:44:15;40.40;42.00
35690;DHT22;26977;44.830;-0.674;2022-07-15T13:46:41;41.50;42.40
35690;DHT22;26977;44.830;-0.674;2022-07-15T13:49:07;40.90;43.60
35690;DHT22;26977;44.830;-0.674;2022-07-15T13:51:33;40.40;45.60
35690;DHT22;26977;44.830;-0.674;2022-07-15T13:53:59;41.70;44.70
35690;DHT22;26977;44.830;-0.674;2022-07-15T13:56:25;41.70;44.30
35690;DHT22;26977;44.830;-0.674;2022-07-15T13:58:51;42.30;43.70
35690;DHT22;26977;44.830;-0.674;2022-07-15T14:01:17;42.70;44.40
35690;DHT22;26977;44.830;-0.674;2022-07-15T14:03:43;42.70;44.80
35690;DHT22;26977;44.830;-0.674;2022-07-15T14:06:08;41.40;44.00
35690;DHT22;26977;44.830;-0.674;2022-07-15T14:08:35;40.70;45.20
35690;DHT22;26977;44.830;-0.674;2022-07-15T14:11:01;41.50;44.60
35690;DHT22;26977;44.830;-0.674;2022-07-15T14:13:27;41.80;45.40
35690;DHT22;26977;44.830;-0.674;2022-07-15T14:15:52;41.80;44.70
35690;DHT22;26977;44.830;-0.674;2022-07-15T14:18:18;40.60;45.10
35690;DHT22;26977;44.830;-0.674;2022-07-15T14:21:04;41.10;45.00
35690;DHT22;26977;44.830;-0.674;2022-07-15T14:23:29;41.90;44.30
35690;DHT22;26977;44.830;-0.674;2022-07-15T14:25:55;43.10;45.20
35690;DHT22;26977;44.830;-0.674;2022-07-15T14:28:20;42.70;44.20
35690;DHT22;26977;44.830;-0.674;2022-07-15T14:30:46;42.30;44.30
35690;DHT22;26977;44.830;-0.674;2022-07-15T14:33:12;41.60;44.20
35690;DHT22;26977;44.830;-0.674;2022-07-15T14:35:37;42.50;44.50
35690;DHT22;26977;44.830;-0.674;2022-07-15T14:38:03;43.40;44.50
35690;DHT22;26977;44.830;-0.674;2022-07-15T14:40:29;42.80;44.50
35690;DHT22;26977;44.830;-0.674;2022-07-15T14:42:54;43.20;44.50
35690;DHT22;26977;44.830;-0.674;2022-07-15T14:45:20;42.10;44.00
35690;DHT22;26977;44.830;-0.674;2022-07-15T14:47:45;40.50;44.10
35690;DHT22;26977;44.830;-0.674;2022-07-15T14:50:11;40.40;45.10
35690;DHT22;26977;44.830;-0.674;2022-07-15T14:52:37;41.40;44.60
35690;DHT22;26977;44.830;-0.674;2022-07-15T14:55:03;41.80;43.80
35690;DHT22;26977;44.830;-0.674;2022-07-15T14:57:29;42.30;43.70
35690;DHT22;26977;44.830;-0.674;2022-07-15T14:59:55;42.80;43.00
35690;DHT22;26977;44.830;-0.674;2022-07-15T15:02:20;43.50;43.40
35690;DHT22;26977;44.830;-0.674;2022-07-15T15:04:47;44.40;43.10
35690;DHT22;26977;44.830;-0.674;2022-07-15T15:07:13;44.60;41.30
35690;DHT22;26977;44.830;-0.674;2022-07-15T15:09:38;44.90;41.60
35690;DHT22;26977;44.830;-0.674;2022-07-15T15:12:04;44.80;41.70
35690;DHT22;26977;44.830;-0.674;2022-07-15T15:14:30;44.50;41.50
35690;DHT22;26977;44.830;-0.674;2022-07-15T15:16:55;42.90;41.70
35690;DHT22;26977;44.830;-0.674;2022-07-15T15:19:21;42.70;42.40
35690;DHT22;26977;44.830;-0.674;2022-07-15T15:21:47;43.20;41.90
35690;DHT22;26977;44.830;-0.674;2022-07-15T15:24:12;43.20;42.00
35690;DHT22;26977;44.830;-0.674;2022-07-15T15:26:38;41.50;43.60
35690;DHT22;26977;44.830;-0.674;2022-07-15T15:29:04;40.60;44.50
35690;DHT22;26977;44.830;-0.674;2022-07-15T15:31:31;40.00;44.40
35690;DHT22;26977;44.830;-0.674;2022-07-15T15:33:57;40.10;44.90
35690;DHT22;26977;44.830;-0.674;2022-07-15T15:36:22;40.50;45.30
35690;DHT22;26977;44.830;-0.674;2022-07-15T15:38:48;39.70;44.30
35690;DHT22;26977;44.830;-0.674;2022-07-15T15:41:14;39.50;45.90
35690;DHT22;26977;44.830;-0.674;2022-07-15T15:43:40;40.40;45.40
35690;DHT22;26977;44.830;-0.674;2022-07-15T15:46:05;41.00;44.10
35690;DHT22;26977;44.830;-0.674;2022-07-15T15:48:31;41.60;44.60
35690;DHT22;26977;44.830;-0.674;2022-07-15T15:50:57;42.60;44.30
35690;DHT22;26977;44.830;-0.674;2022-07-15T15:53:24;41.90;44.10
35690;DHT22;26977;44.830;-0.674;2022-07-15T15:55:49;41.60;44.40
35690;DHT22;26977;44.830;-0.674;2022-07-15T15:58:15;41.80;44.30
35690;DHT22;26977;44.830;-0.674;2022-07-15T16:00:41;41.70;44.50
35690;DHT22;26977;44.830;-0.674;2022-07-15T16:03:06;42.30;44.10
35690;DHT22;26977;44.830;-0.674;2022-07-15T16:05:32;42.30;43.80
35690;DHT22;26977;44.830;-0.674;2022-07-15T16:07:58;41.40;44.10
35690;DHT22;26977;44.830;-0.674;2022-07-15T16:10:24;41.70;44.20